Lenox, MA (01240)

7:37 AM EST on November 24, 2014 (GMT -0500)
KMARICHM2 | Change Station
CLOSE
Current Station
Personal Weather Station
Location: Richmond, MA
Elevation: 1073 ft
Nearby Weather Stations

Elev 1073 ft 42.36 °N, 73.37 °W | Updated 4 seconds ago

Mostly Cloudy
Mostly Cloudy
56.0 °F
Feels Like 56.0 °F
N
3.0
Wind Variable Wind from SW
Gusts 7.0 mph

Today
High -- | Low -- °F
--% Chance of Precip.
Yesterday
High -- | Low -- °F
Precip. -- in
6:54 AM 4:24 PM
Waxing Crescent, 5% visible
Pressure 29.65 in
Visibility 4.0 miles
Clouds Overcast 900 ft
Dew Point 45 °F
Humidity 66%
Rainfall 0.45 in
Snow Depth Not available.
UV 0 out of 12
Pollen .10 out of 12
Air Quality Not available.
Flu Activity Not available.
METAR KPSF 241154Z AUTO 13007G18KT 080V160 4SM -RA BR OVC009 12/11 A2966 RMK AO2 WSHFT 1111 SLP039 P0010 60039 70039 T01220111 10122 20028 56048

More Conditions Fewer Conditions

Pressure 29.65 in
Visibility 4.0 miles
Clouds Overcast 900 ft
Dew Point 45 °F
Humidity 66%
Rainfall 0.45 in
Snow Depth Not available.
UV 0 out of 12
Pollen .10 out of 12
Air Quality Not available.
Flu Activity Not available.
METAR KPSF 241154Z AUTO 13007G18KT 080V160 4SM -RA BR OVC009 12/11 A2966 RMK AO2 WSHFT 1111 SLP039 P0010 60039 70039 T01220111 10122 20028 56048

More Conditions Fewer Conditions

10-Day Weather Forecast

Almanac

Astronomy

Nov. 24, 2014 Rise Set
Actual Time
Civil Twilight
Nautical Twilight
Astronomical Twilight
Moon
Length of Visible Light
Length of Day
Tomorrow will be .
, % of the Moon is Illuminated

Today's Extremes

State Highs State Lows

Community

WunderPhotos

Upload Photos

1,773,319 photos uploaded!

WunderBlogs® & News

Nearby

Air Quality

  Air Quality AQ Index Pollutant
Not available.

Snow Depth

Station Depth Elevation

Earthquake Activity

City Distance Mag. Time & Date
Minimum magnitude displayed is 2.5.

Coastal Water Temperatures

Place Temperature

Nearby Weather Stations